Time;durP1;ratioP1;P1;durP2;ratioP2;P2;SDS_P1;SDS_P2;PMS_P1;PMS_P2;Temp;Humidity;BMP_temperature;BMP_pressure;BME280_temperature;BME280_humidity;BME280_pressure;Samples;Min_cycle;Max_cycle;Signal;HPM_P1;HPM_P2
2022/07/16 00:02:39;;;;;;;4.00;3.67;;;;;;;;;;5092992;28;24459;-45
2022/07/16 00:05:05;;;;;;;4.07;3.77;;;;;;;;;;5100193;27;25163;-46
2022/07/16 00:07:30;;;;;;;4.15;3.65;;;;;;;;;;5095529;28;24483;-46
2022/07/16 00:09:56;;;;;;;4.10;3.70;;;;;;;;;;5108625;28;24640;-45
2022/07/16 00:12:21;;;;;;;3.50;3.20;;;;;;;;;;5096396;28;24433;-45
2022/07/16 00:14:46;;;;;;;3.50;3.20;;;;;;;;;;5087805;28;24437;-47
2022/07/16 00:17:11;;;;;;;3.80;3.20;;;;;;;;;;5090181;28;24434;-46
2022/07/16 00:19:36;;;;;;;3.60;3.20;;;;;;;;;;5099729;27;24419;-47
2022/07/16 00:22:02;;;;;;;3.92;3.10;;;;;;;;;;5092025;28;24507;-47
2022/07/16 00:24:27;;;;;;;3.70;3.40;;;;;;;;;;5096565;28;24467;-47
2022/07/16 00:26:52;;;;;;;3.90;3.40;;;;;;;;;;5092111;27;24434;-46
2022/07/16 00:29:18;;;;;;;3.90;3.50;;;;;;;;;;5089935;28;25041;-46
2022/07/16 00:31:44;;;;;;;3.75;3.45;;;;;;;;;;5098230;28;25244;-46
2022/07/16 00:34:09;;;;;;;3.70;3.40;;;;;;;;;;5093135;28;24522;-46
2022/07/16 00:36:36;;;;;;;3.70;3.40;;;;;;;;;;5100779;28;24544;-46
2022/07/16 00:39:01;;;;;;;3.70;3.40;;;;;;;;;;5101032;28;24931;-46
2022/07/16 00:41:26;;;;;;;3.55;2.70;;;;;;;;;;5098558;28;24993;-46
2022/07/16 00:43:53;;;;;;;4.60;3.37;;;;;;;;;;5104513;28;24950;-47
2022/07/16 00:46:19;;;;;;;4.43;3.45;;;;;;;;;;5098820;28;24924;-46
2022/07/16 00:48:44;;;;;;;4.05;3.67;;;;;;;;;;5086996;28;24539;-46
2022/07/16 00:51:10;;;;;;;3.97;3.67;;;;;;;;;;5092877;28;24517;-46
2022/07/16 00:53:35;;;;;;;4.00;3.70;;;;;;;;;;5098619;28;24860;-46
2022/07/16 00:56:01;;;;;;;4.43;4.03;;;;;;;;;;5101773;28;24426;-47
2022/07/16 00:58:26;;;;;;;4.30;3.90;;;;;;;;;;5098320;27;24437;-47
2022/07/16 01:00:52;;;;;;;3.80;3.50;;;;;;;;;;5097274;28;24536;-47
2022/07/16 01:03:17;;;;;;;3.97;3.67;;;;;;;;;;5089241;28;24815;-46
2022/07/16 01:05:42;;;;;;;4.43;4.03;;;;;;;;;;5098289;28;24418;-46
2022/07/16 01:08:08;;;;;;;4.20;3.80;;;;;;;;;;5101928;28;24512;-46
2022/07/16 01:10:33;;;;;;;4.40;3.70;;;;;;;;;;5094209;28;24513;-46
2022/07/16 01:12:59;;;;;;;4.00;3.60;;;;;;;;;;5090914;28;24428;-46
2022/07/16 01:15:24;;;;;;;5.07;3.72;;;;;;;;;;5097541;28;24459;-46
2022/07/16 01:17:49;;;;;;;4.18;3.60;;;;;;;;;;5101458;28;24523;-46
2022/07/16 01:20:15;;;;;;;4.07;3.60;;;;;;;;;;5098019;28;24432;-46
2022/07/16 01:22:40;;;;;;;3.80;3.50;;;;;;;;;;5094699;28;24418;-46
2022/07/16 01:25:07;;;;;;;3.63;3.35;;;;;;;;;;5105470;27;24980;-46
2022/07/16 01:27:32;;;;;;;4.00;3.60;;;;;;;;;;5090131;27;24464;-46
2022/07/16 01:29:58;;;;;;;3.70;3.40;;;;;;;;;;5097566;27;24480;-46
2022/07/16 01:32:23;;;;;;;4.00;3.70;;;;;;;;;;5100649;28;24494;-46
2022/07/16 01:34:48;;;;;;;3.80;3.30;;;;;;;;;;5100600;28;24448;-46
2022/07/16 01:37:14;;;;;;;3.30;3.00;;;;;;;;;;5091036;28;24958;-46
2022/07/16 01:39:40;;;;;;;3.88;3.40;;;;;;;;;;5102223;28;24438;-46
2022/07/16 01:42:06;;;;;;;3.50;3.20;;;;;;;;;;5094743;28;25226;-46
2022/07/16 01:44:34;;;;;;;4.95;3.60;;;;;;;;;;5102941;28;25000;-46
2022/07/16 01:47:00;;;;;;;3.70;3.25;;;;;;;;;;5091922;28;24426;-46
2022/07/16 01:49:29;;;;;;;4.10;3.63;;;;;;;;;;5094576;28;24815;-46
2022/07/16 01:51:54;;;;;;;3.40;3.20;;;;;;;;;;5093065;28;24526;-45
2022/07/16 01:54:19;;;;;;;3.40;3.10;;;;;;;;;;5089194;28;24538;-46
2022/07/16 01:56:44;;;;;;;3.80;3.50;;;;;;;;;;5088903;28;24421;-45
2022/07/16 01:59:10;;;;;;;3.87;3.57;;;;;;;;;;5104713;28;24528;-46
2022/07/16 02:01:35;;;;;;;3.77;3.47;;;;;;;;;;5093752;28;25016;-45
2022/07/16 02:04:00;;;;;;;4.10;3.40;;;;;;;;;;5099930;28;24410;-46
2022/07/16 02:06:25;;;;;;;3.53;3.20;;;;;;;;;;5100684;28;24426;-46
2022/07/16 02:08:51;;;;;;;3.10;2.90;;;;;;;;;;5089077;28;24851;-46
2022/07/16 02:11:16;;;;;;;3.60;2.90;;;;;;;;;;5086904;28;24418;-46
2022/07/16 02:13:42;;;;;;;3.40;3.10;;;;;;;;;;5096177;28;24990;-46
2022/07/16 02:16:07;;;;;;;3.67;3.38;;;;;;;;;;5096732;28;24422;-46
2022/07/16 02:18:32;;;;;;;3.10;2.90;;;;;;;;;;5092307;28;24852;-46
2022/07/16 02:20:57;;;;;;;3.50;2.90;;;;;;;;;;5098342;28;25057;-45
2022/07/16 02:23:23;;;;;;;3.70;3.10;;;;;;;;;;5099073;28;24418;-45
2022/07/16 02:25:48;;;;;;;3.50;2.70;;;;;;;;;;5099644;28;24990;-45
2022/07/16 02:28:13;;;;;;;2.90;2.10;;;;;;;;;;5091019;28;24540;-46
2022/07/16 02:30:42;;;;;;;3.00;2.70;;;;;;;;;;5088052;28;24812;-45
2022/07/16 02:33:08;;;;;;;3.65;2.80;;;;;;;;;;5101685;28;24424;-45
2022/07/16 02:35:33;;;;;;;3.00;2.70;;;;;;;;;;5090277;28;24483;-46
2022/07/16 02:37:59;;;;;;;3.27;2.80;;;;;;;;;;5090279;28;24430;-46
2022/07/16 02:40:24;;;;;;;2.97;2.67;;;;;;;;;;5092899;28;24980;-46
2022/07/16 02:42:49;;;;;;;3.60;2.67;;;;;;;;;;5098316;28;24811;-46
2022/07/16 02:45:14;;;;;;;3.47;2.70;;;;;;;;;;5093583;28;24479;-47
2022/07/16 02:47:39;;;;;;;3.80;2.65;;;;;;;;;;5102487;28;24504;-48
2022/07/16 02:50:06;;;;;;;3.00;2.70;;;;;;;;;;5071712;28;24452;-46
2022/07/16 02:52:31;;;;;;;2.72;2.50;;;;;;;;;;5100782;28;24575;-46
2022/07/16 02:54:56;;;;;;;2.88;2.20;;;;;;;;;;5099635;28;25010;-46
2022/07/16 02:57:21;;;;;;;3.27;2.50;;;;;;;;;;5086619;28;24429;-46
2022/07/16 02:59:46;;;;;;;2.60;2.40;;;;;;;;;;5084879;28;24857;-46
2022/07/16 03:02:11;;;;;;;2.72;2.50;;;;;;;;;;5107104;28;24451;-46
2022/07/16 03:04:36;;;;;;;2.60;2.40;;;;;;;;;;5098797;28;24442;-46
2022/07/16 03:07:03;;;;;;;2.70;2.50;;;;;;;;;;5113523;27;24772;-46
2022/07/16 03:09:28;;;;;;;2.78;2.45;;;;;;;;;;5103168;28;24438;-46
2022/07/16 03:11:53;;;;;;;2.75;2.40;;;;;;;;;;5094978;28;24471;-47
2022/07/16 03:14:18;;;;;;;3.13;2.90;;;;;;;;;;5098975;28;24461;-45
2022/07/16 03:16:43;;;;;;;2.33;2.13;;;;;;;;;;5103898;28;24928;-44
2022/07/16 03:19:08;;;;;;;2.80;2.60;;;;;;;;;;5103891;27;24507;-46
2022/07/16 03:21:33;;;;;;;3.00;2.70;;;;;;;;;;5096889;28;24571;-45
2022/07/16 03:23:59;;;;;;;3.07;2.57;;;;;;;;;;5099241;28;24422;-45
2022/07/16 03:26:24;;;;;;;2.45;2.10;;;;;;;;;;5097863;27;24467;-45
2022/07/16 03:28:49;;;;;;;2.90;2.40;;;;;;;;;;5101158;28;24440;-45
2022/07/16 03:31:17;;;;;;;3.13;2.53;;;;;;;;;;5103646;27;24449;-46
2022/07/16 03:33:42;;;;;;;3.10;2.30;;;;;;;;;;5096781;28;24433;-45
2022/07/16 03:36:07;;;;;;;3.03;2.40;;;;;;;;;;5097442;28;24559;-45
2022/07/16 03:41:16;;;;;;;3.30;2.50;;;;;;;;;;5098997;27;24540;-45
2022/07/16 03:43:41;;;;;;;2.40;2.20;;;;;;;;;;5100588;28;24510;-45
2022/07/16 03:46:12;;;;;;;2.13;1.90;;;;;;;;;;5098602;28;25028;-45
2022/07/16 03:48:37;;;;;;;2.47;2.20;;;;;;;;;;5102614;28;24438;-45
2022/07/16 03:51:04;;;;;;;2.25;2.05;;;;;;;;;;5103847;28;24470;-46
2022/07/16 03:53:29;;;;;;;2.50;2.30;;;;;;;;;;5102737;28;24579;-46
2022/07/16 03:55:54;;;;;;;2.60;2.20;;;;;;;;;;5099145;27;24567;-46
2022/07/16 03:58:19;;;;;;;2.67;2.00;;;;;;;;;;5095713;27;24446;-45
2022/07/16 04:00:44;;;;;;;2.47;2.00;;;;;;;;;;5100082;28;24951;-46
2022/07/16 04:03:09;;;;;;;2.83;2.40;;;;;;;;;;5105159;28;24434;-46
2022/07/16 04:05:34;;;;;;;2.30;2.00;;;;;;;;;;5108635;28;24440;-46
2022/07/16 04:08:00;;;;;;;1.90;1.70;;;;;;;;;;5096492;28;25057;-46
2022/07/16 04:10:25;;;;;;;2.10;2.00;;;;;;;;;;5097816;28;24520;-46
2022/07/16 04:12:50;;;;;;;2.40;2.10;;;;;;;;;;5108703;28;24436;-46
2022/07/16 04:15:15;;;;;;;2.70;1.90;;;;;;;;;;5091700;27;24870;-46
2022/07/16 04:17:40;;;;;;;2.72;2.20;;;;;;;;;;5098471;28;24461;-45
2022/07/16 04:20:06;;;;;;;2.85;2.00;;;;;;;;;;5089518;28;24437;-45
2022/07/16 04:22:31;;;;;;;2.10;2.00;;;;;;;;;;5093448;28;25123;-45
2022/07/16 04:24:56;;;;;;;3.95;1.90;;;;;;;;;;5100622;28;24410;-45
2022/07/16 04:27:21;;;;;;;2.47;2.28;;;;;;;;;;5099365;28;24437;-47
2022/07/16 04:29:46;;;;;;;2.30;2.10;;;;;;;;;;5092042;28;24978;-46
2022/07/16 04:32:11;;;;;;;2.88;2.20;;;;;;;;;;5098608;28;24918;-46
2022/07/16 04:34:37;;;;;;;2.97;1.90;;;;;;;;;;5097820;28;24509;-46
2022/07/16 04:37:02;;;;;;;3.07;2.40;;;;;;;;;;5098596;28;24779;-45
2022/07/16 04:39:27;;;;;;;3.20;1.85;;;;;;;;;;5099669;28;24426;-45
2022/07/16 04:41:52;;;;;;;2.00;1.80;;;;;;;;;;5095746;28;24521;-45
2022/07/16 04:44:17;;;;;;;2.10;1.90;;;;;;;;;;5102750;28;24432;-45
2022/07/16 04:46:42;;;;;;;2.70;2.00;;;;;;;;;;5099780;28;24420;-46
2022/07/16 04:49:07;;;;;;;1.90;1.80;;;;;;;;;;5105683;28;24450;-45
2022/07/16 04:51:32;;;;;;;2.45;1.67;;;;;;;;;;5095763;28;24440;-45
2022/07/16 04:53:58;;;;;;;1.85;1.70;;;;;;;;;;5097476;28;24457;-46
2022/07/16 04:56:23;;;;;;;1.80;1.70;;;;;;;;;;5097542;28;24473;-45
2022/07/16 04:58:48;;;;;;;1.77;1.40;;;;;;;;;;5102286;28;24424;-46
2022/07/16 05:01:13;;;;;;;3.53;1.77;;;;;;;;;;5101581;27;24788;-46
2022/07/16 05:03:38;;;;;;;2.20;1.80;;;;;;;;;;5106739;28;25045;-45
2022/07/16 05:06:03;;;;;;;1.80;1.70;;;;;;;;;;5106417;27;24437;-45
2022/07/16 05:08:28;;;;;;;3.20;1.80;;;;;;;;;;5114291;27;24474;-45
2022/07/16 05:10:54;;;;;;;2.40;1.50;;;;;;;;;;5104272;27;24977;-46
2022/07/16 05:13:19;;;;;;;2.00;1.80;;;;;;;;;;5106539;27;24459;-46
2022/07/16 05:15:44;;;;;;;2.50;1.70;;;;;;;;;;5102385;28;24459;-46
2022/07/16 05:18:09;;;;;;;2.80;1.70;;;;;;;;;;5102685;27;24486;-46
2022/07/16 05:20:35;;;;;;;1.87;1.60;;;;;;;;;;5108335;28;24853;-45
2022/07/16 05:23:00;;;;;;;2.90;1.50;;;;;;;;;;5103524;27;24512;-46
2022/07/16 05:25:26;;;;;;;2.50;1.50;;;;;;;;;;5085709;28;25006;-46
2022/07/16 05:27:51;;;;;;;1.47;1.20;;;;;;;;;;5108204;28;24422;-46
2022/07/16 05:30:16;;;;;;;2.10;1.30;;;;;;;;;;5120308;27;24438;-46
2022/07/16 05:32:42;;;;;;;1.80;1.30;;;;;;;;;;5103727;27;24434;-46
2022/07/16 05:35:08;;;;;;;2.70;1.10;;;;;;;;;;5090155;28;24429;-46
2022/07/16 05:37:33;;;;;;;1.13;1.00;;;;;;;;;;5092581;27;24437;-46
2022/07/16 05:39:58;;;;;;;1.17;1.10;;;;;;;;;;5100077;28;24422;-46
2022/07/16 05:42:23;;;;;;;2.15;1.30;;;;;;;;;;5089772;28;24422;-45
2022/07/16 05:44:49;;;;;;;2.10;1.40;;;;;;;;;;5088593;28;24426;-45
2022/07/16 05:47:14;;;;;;;2.90;1.70;;;;;;;;;;5094652;28;24995;-46
2022/07/16 05:49:39;;;;;;;1.90;1.40;;;;;;;;;;5089066;28;24453;-46
2022/07/16 05:52:04;;;;;;;1.87;1.50;;;;;;;;;;5089404;28;24479;-46
2022/07/16 05:54:29;;;;;;;3.30;1.90;;;;;;;;;;5094149;28;24441;-45
2022/07/16 05:56:55;;;;;;;1.80;1.63;;;;;;;;;;5090764;28;24428;-45
2022/07/16 05:59:20;;;;;;;2.00;1.30;;;;;;;;;;5101470;28;24808;-46
2022/07/16 06:01:45;;;;;;;1.90;1.40;;;;;;;;;;5093306;28;24422;-46
2022/07/16 06:04:10;;;;;;;2.60;1.50;;;;;;;;;;5093398;28;24513;-45
2022/07/16 06:06:35;;;;;;;2.38;1.80;;;;;;;;;;5095140;28;24455;-46
2022/07/16 06:09:01;;;;;;;3.37;1.47;;;;;;;;;;5090881;27;24446;-46
2022/07/16 06:11:26;;;;;;;1.85;1.65;;;;;;;;;;5094603;27;24994;-46
2022/07/16 06:13:51;;;;;;;1.20;1.10;;;;;;;;;;5095109;28;24993;-46
2022/07/16 06:16:16;;;;;;;2.13;1.40;;;;;;;;;;5106747;28;24487;-46
2022/07/16 06:18:42;;;;;;;2.20;1.40;;;;;;;;;;5099436;28;24756;-47
2022/07/16 06:21:07;;;;;;;2.10;1.50;;;;;;;;;;5101873;28;24417;-47
2022/07/16 06:23:32;;;;;;;3.38;1.60;;;;;;;;;;5102588;28;24426;-46
2022/07/16 06:25:57;;;;;;;2.10;1.40;;;;;;;;;;5096605;28;24774;-46
2022/07/16 06:28:23;;;;;;;1.70;1.50;;;;;;;;;;5100065;27;24463;-47
2022/07/16 06:30:48;;;;;;;2.93;1.60;;;;;;;;;;5100580;28;24447;-46
2022/07/16 06:33:13;;;;;;;1.70;1.50;;;;;;;;;;5092442;28;24425;-46
2022/07/16 06:35:38;;;;;;;1.70;1.60;;;;;;;;;;5099649;28;25253;-46
2022/07/16 06:38:03;;;;;;;1.77;1.40;;;;;;;;;;5094084;28;25077;-46
2022/07/16 06:40:29;;;;;;;2.50;1.80;;;;;;;;;;5094633;28;24433;-46
2022/07/16 06:42:54;;;;;;;1.60;1.30;;;;;;;;;;5100085;27;25058;-45
2022/07/16 06:45:19;;;;;;;1.40;1.25;;;;;;;;;;5098932;28;24414;-46
2022/07/16 06:47:44;;;;;;;2.23;1.50;;;;;;;;;;5104630;28;24474;-45
2022/07/16 06:50:10;;;;;;;2.22;1.20;;;;;;;;;;5100411;28;24998;-46
2022/07/16 06:52:35;;;;;;;1.47;1.20;;;;;;;;;;5088772;28;24422;-46
2022/07/16 06:55:01;;;;;;;1.63;1.40;;;;;;;;;;5096477;28;24437;-47
2022/07/16 06:57:26;;;;;;;1.55;1.45;;;;;;;;;;5092102;28;24493;-46
2022/07/16 06:59:51;;;;;;;2.30;1.30;;;;;;;;;;5090717;28;24426;-46
2022/07/16 07:02:16;;;;;;;2.05;1.10;;;;;;;;;;5087786;28;24517;-45
2022/07/16 07:04:41;;;;;;;2.00;1.23;;;;;;;;;;5087971;28;24517;-45
2022/07/16 07:07:06;;;;;;;2.43;1.40;;;;;;;;;;5092121;28;24826;-47
2022/07/16 07:09:32;;;;;;;2.03;1.42;;;;;;;;;;5090486;28;24430;-47
2022/07/16 07:11:57;;;;;;;2.42;1.50;;;;;;;;;;5093389;28;24417;-47
2022/07/16 07:14:22;;;;;;;4.70;1.95;;;;;;;;;;5097203;28;24425;-46
2022/07/16 07:16:47;;;;;;;1.90;1.50;;;;;;;;;;5085603;28;24892;-46
2022/07/16 07:19:12;;;;;;;2.33;1.70;;;;;;;;;;5094512;28;24433;-47
2022/07/16 07:21:37;;;;;;;1.85;1.50;;;;;;;;;;5085813;28;24427;-46
2022/07/16 07:24:03;;;;;;;3.60;2.00;;;;;;;;;;5089294;28;24630;-46
2022/07/16 07:26:28;;;;;;;2.60;1.70;;;;;;;;;;5087707;28;24428;-46
2022/07/16 07:28:53;;;;;;;1.70;1.60;;;;;;;;;;5097005;28;24438;-46
2022/07/16 07:31:18;;;;;;;2.28;1.83;;;;;;;;;;5092890;28;24909;-46
2022/07/16 07:33:43;;;;;;;1.50;1.40;;;;;;;;;;5091666;28;24452;-46
2022/07/16 07:36:09;;;;;;;1.73;1.20;;;;;;;;;;5091073;28;24514;-48
2022/07/16 07:38:34;;;;;;;2.20;1.50;;;;;;;;;;5085273;28;24983;-46
2022/07/16 07:40:59;;;;;;;1.30;1.20;;;;;;;;;;5094619;28;24456;-46
2022/07/16 07:43:24;;;;;;;1.50;1.40;;;;;;;;;;5086229;28;24487;-47
2022/07/16 07:45:49;;;;;;;4.70;1.90;;;;;;;;;;5101887;28;24425;-47
2022/07/16 07:48:14;;;;;;;2.92;1.58;;;;;;;;;;5106133;28;24554;-46
2022/07/16 07:50:39;;;;;;;2.22;1.40;;;;;;;;;;5105466;28;25241;-46
2022/07/16 07:53:05;;;;;;;3.97;1.60;;;;;;;;;;5107906;28;24520;-46
2022/07/16 07:55:33;;;;;;;1.37;1.20;;;;;;;;;;5110150;28;24898;-46
2022/07/16 07:57:58;;;;;;;1.20;1.00;;;;;;;;;;5097158;28;24982;-46
2022/07/16 08:00:23;;;;;;;1.50;1.40;;;;;;;;;;5105117;28;24433;-45
2022/07/16 08:02:48;;;;;;;3.00;1.10;;;;;;;;;;5108727;28;24425;-46
2022/07/16 08:05:13;;;;;;;2.30;1.30;;;;;;;;;;5109855;28;24417;-45
2022/07/16 08:07:39;;;;;;;3.90;1.80;;;;;;;;;;5109879;28;24436;-45
2022/07/16 08:10:04;;;;;;;2.30;1.80;;;;;;;;;;5109973;28;24428;-45
2022/07/16 08:12:30;;;;;;;2.45;1.67;;;;;;;;;;5109480;28;24386;-46
2022/07/16 08:14:55;;;;;;;3.40;1.80;;;;;;;;;;5108415;28;24428;-45
2022/07/16 08:17:20;;;;;;;3.10;1.83;;;;;;;;;;5103568;28;24442;-45
2022/07/16 08:19:45;;;;;;;2.00;1.80;;;;;;;;;;5098664;28;24817;-46
2022/07/16 08:22:10;;;;;;;2.80;1.60;;;;;;;;;;5103067;28;24503;-46
2022/07/16 08:27:19;;;;;;;2.60;1.90;;;;;;;;;;5107998;28;24498;-45
2022/07/16 08:29:45;;;;;;;2.90;2.00;;;;;;;;;;5106970;28;24413;-45
2022/07/16 08:32:10;;;;;;;2.87;2.10;;;;;;;;;;5109252;28;24401;-45
2022/07/16 08:34:35;;;;;;;2.20;2.00;;;;;;;;;;5102930;28;25212;-45
2022/07/16 08:37:00;;;;;;;2.57;1.80;;;;;;;;;;5089414;28;24398;-45
2022/07/16 08:39:26;;;;;;;2.20;2.00;;;;;;;;;;5093000;28;24426;-45
2022/07/16 08:41:51;;;;;;;2.30;1.60;;;;;;;;;;5108845;28;24641;-45
2022/07/16 08:44:16;;;;;;;3.40;2.17;;;;;;;;;;5105678;28;24512;-45
2022/07/16 08:46:42;;;;;;;2.10;1.90;;;;;;;;;;5106646;28;24433;-45
2022/07/16 08:49:07;;;;;;;2.67;2.22;;;;;;;;;;5108011;28;24421;-45
2022/07/16 08:51:35;;;;;;;2.40;1.70;;;;;;;;;;5107445;28;21535;-45
2022/07/16 08:54:01;;;;;;;2.70;2.30;;;;;;;;;;5108322;28;24447;-46
2022/07/16 08:56:30;;;;;;;2.17;1.98;;;;;;;;;;5088730;28;24510;-45
2022/07/16 08:58:55;;;;;;;2.93;1.90;;;;;;;;;;5091930;28;24599;-45
2022/07/16 09:01:20;;;;;;;3.50;2.17;;;;;;;;;;5107273;28;24471;-45
2022/07/16 09:03:45;;;;;;;2.00;1.80;;;;;;;;;;5108323;28;24944;-45
2022/07/16 09:06:11;;;;;;;3.20;2.20;;;;;;;;;;5108943;28;24416;-47
2022/07/16 09:08:36;;;;;;;3.28;2.10;;;;;;;;;;5108654;28;24373;-47
2022/07/16 09:11:21;;;;;;;4.50;2.38;;;;;;;;;;5102688;27;24505;-46
2022/07/16 09:14:05;;;;;;;2.60;2.05;;;;;;;;;;5097677;27;24449;-46
2022/07/16 09:16:34;;;;;;;1.83;1.70;;;;;;;;;;5100851;28;24439;-45
2022/07/16 09:19:04;;;;;;;2.40;2.20;;;;;;;;;;5097036;27;24438;-46
2022/07/16 09:21:29;;;;;;;2.40;2.20;;;;;;;;;;5094060;28;24428;-46
2022/07/16 09:23:54;;;;;;;2.03;1.87;;;;;;;;;;5095168;28;24436;-45
2022/07/16 09:26:23;;;;;;;2.00;1.90;;;;;;;;;;5092948;28;24465;-46
2022/07/16 09:28:49;;;;;;;2.80;2.20;;;;;;;;;;5084246;27;24429;-46
2022/07/16 09:31:33;;;;;;;2.60;2.17;;;;;;;;;;5091093;27;24426;-46
2022/07/16 09:34:04;;;;;;;2.40;2.20;;;;;;;;;;5086308;28;24976;-46
2022/07/16 09:36:30;;;;;;;3.23;1.80;;;;;;;;;;5095634;28;24964;-46
2022/07/16 09:38:55;;;;;;;2.75;2.00;;;;;;;;;;5103826;28;24922;-46
2022/07/16 09:41:20;;;;;;;1.80;1.70;;;;;;;;;;5087322;27;24967;-46
2022/07/16 09:43:46;;;;;;;2.60;2.40;;;;;;;;;;5095332;28;24429;-46
2022/07/16 09:46:16;;;;;;;2.45;2.25;;;;;;;;;;5091263;28;24426;-46
2022/07/16 09:48:42;;;;;;;3.22;2.08;;;;;;;;;;5083985;28;25285;-46
2022/07/16 09:51:13;;;;;;;4.05;2.20;;;;;;;;;;5084162;28;24433;-47
2022/07/16 09:53:40;;;;;;;2.00;1.90;;;;;;;;;;5082954;28;24467;-46
2022/07/16 09:56:07;;;;;;;3.20;2.20;;;;;;;;;;5091359;28;24513;-46
2022/07/16 09:58:35;;;;;;;2.50;2.30;;;;;;;;;;5086936;28;24932;-46
2022/07/16 10:01:01;;;;;;;2.27;2.10;;;;;;;;;;5096566;27;24425;-47
2022/07/16 10:03:28;;;;;;;2.70;2.10;;;;;;;;;;5088433;28;24410;-46
2022/07/16 10:05:53;;;;;;;4.22;2.45;;;;;;;;;;5099620;28;24983;-46
2022/07/16 10:08:18;;;;;;;2.43;2.23;;;;;;;;;;5083004;28;24522;-46
2022/07/16 10:10:44;;;;;;;2.80;2.30;;;;;;;;;;5082415;28;24971;-46
2022/07/16 10:13:09;;;;;;;2.80;2.00;;;;;;;;;;5082348;28;24603;-46
2022/07/16 10:15:35;;;;;;;3.20;2.30;;;;;;;;;;5092852;28;24479;-46
2022/07/16 10:18:00;;;;;;;3.40;2.70;;;;;;;;;;5082423;28;26153;-46
2022/07/16 10:20:26;;;;;;;2.73;2.20;;;;;;;;;;5083848;28;24482;-46
2022/07/16 10:22:51;;;;;;;3.00;2.80;;;;;;;;;;5088974;28;24792;-46
2022/07/16 10:25:18;;;;;;;3.20;2.90;;;;;;;;;;5083246;28;24974;-45
2022/07/16 10:27:44;;;;;;;4.30;3.03;;;;;;;;;;5081740;27;24434;-46
2022/07/16 10:30:10;;;;;;;2.70;2.30;;;;;;;;;;5100445;28;24985;-46
2022/07/16 10:32:54;;;;;;;2.67;2.47;;;;;;;;;;5085392;28;24460;-45
2022/07/16 10:35:33;;;;;;;2.75;2.55;;;;;;;;;;5095403;28;24429;-46
2022/07/16 10:38:05;;;;;;;3.33;2.50;;;;;;;;;;5096722;28;24491;-46
2022/07/16 10:40:31;;;;;;;2.80;2.60;;;;;;;;;;5084452;28;24510;-46
2022/07/16 10:43:16;;;;;;;2.70;2.50;;;;;;;;;;5093464;28;24587;-46
2022/07/16 10:45:54;;;;;;;3.50;3.10;;;;;;;;;;5100560;28;24508;-46
2022/07/16 10:48:20;;;;;;;3.55;2.70;;;;;;;;;;5089239;28;24453;-46
2022/07/16 10:51:04;;;;;;;2.75;2.40;;;;;;;;;;5097137;28;24406;-45
2022/07/16 10:53:49;;;;;;;2.65;2.45;;;;;;;;;;5095625;28;24533;-45
2022/07/16 10:56:38;;;;;;;3.53;2.60;;;;;;;;;;5092578;28;24417;-46
2022/07/16 10:59:04;;;;;;;2.80;2.30;;;;;;;;;;5077561;28;24540;-46
2022/07/16 11:01:29;;;;;;;4.15;2.58;;;;;;;;;;5094265;28;24422;-46
2022/07/16 11:03:55;;;;;;;3.95;2.90;;;;;;;;;;5096290;28;24471;-46
2022/07/16 11:06:20;;;;;;;2.57;2.13;;;;;;;;;;5093559;28;24426;-46
2022/07/16 11:08:46;;;;;;;3.90;2.95;;;;;;;;;;5097384;28;24441;-46
2022/07/16 11:11:11;;;;;;;2.90;2.70;;;;;;;;;;5101652;28;24551;-46
2022/07/16 11:13:37;;;;;;;2.47;2.28;;;;;;;;;;5094958;28;24433;-46
2022/07/16 11:16:08;;;;;;;3.80;2.60;;;;;;;;;;5099168;28;24416;-47
2022/07/16 11:18:37;;;;;;;3.92;2.38;;;;;;;;;;5096709;28;24418;-46
2022/07/16 11:21:06;;;;;;;2.78;2.58;;;;;;;;;;5095235;28;24423;-46
2022/07/16 11:23:45;;;;;;;3.40;2.58;;;;;;;;;;5095900;28;24474;-46
2022/07/16 11:26:11;;;;;;;2.88;2.58;;;;;;;;;;5106237;27;24867;-47
2022/07/16 11:28:48;;;;;;;3.05;2.85;;;;;;;;;;5087721;28;24498;-46
2022/07/16 11:31:13;;;;;;;2.73;2.30;;;;;;;;;;5094308;28;24417;-47
2022/07/16 11:33:38;;;;;;;2.75;2.55;;;;;;;;;;5100026;28;24441;-47
2022/07/16 11:36:05;;;;;;;2.80;2.60;;;;;;;;;;5095061;28;25018;-47
2022/07/16 11:38:30;;;;;;;3.60;3.30;;;;;;;;;;5105448;28;24421;-46
2022/07/16 11:40:56;;;;;;;3.35;2.90;;;;;;;;;;5088652;28;24979;-47
2022/07/16 11:43:26;;;;;;;2.90;2.70;;;;;;;;;;5088398;27;24406;-47
2022/07/16 11:45:52;;;;;;;3.47;2.90;;;;;;;;;;5099291;28;25015;-46
2022/07/16 11:48:18;;;;;;;3.00;2.70;;;;;;;;;;5099739;28;24461;-46
2022/07/16 11:50:44;;;;;;;3.92;3.40;;;;;;;;;;5087432;28;24540;-46
2022/07/16 11:53:11;;;;;;;3.30;3.00;;;;;;;;;;5106254;28;24406;-46
2022/07/16 11:55:40;;;;;;;2.80;2.60;;;;;;;;;;5097070;27;24429;-47
2022/07/16 11:58:05;;;;;;;2.50;2.30;;;;;;;;;;5097535;28;24529;-46
2022/07/16 12:00:41;;;;;;;2.60;2.40;;;;;;;;;;5103021;27;24615;-45
2022/07/16 12:03:09;;;;;;;2.88;2.63;;;;;;;;;;5093586;27;24449;-46
2022/07/16 12:05:34;;;;;;;2.90;2.60;;;;;;;;;;5102984;28;24500;-46
2022/07/16 12:07:59;;;;;;;2.58;2.25;;;;;;;;;;5105331;28;25173;-46
2022/07/16 12:10:25;;;;;;;2.60;2.40;;;;;;;;;;5094776;28;24515;-46
2022/07/16 12:13:00;;;;;;;2.67;2.10;;;;;;;;;;5090499;28;24456;-46
2022/07/16 12:15:25;;;;;;;2.42;2.22;;;;;;;;;;5094212;28;25443;-46
2022/07/16 12:17:50;;;;;;;2.60;2.07;;;;;;;;;;5096670;28;24532;-46
2022/07/16 12:20:17;;;;;;;3.10;2.20;;;;;;;;;;5107318;28;24382;-46
2022/07/16 12:22:48;;;;;;;2.20;2.10;;;;;;;;;;5099517;28;24428;-46
2022/07/16 12:25:18;;;;;;;2.80;2.50;;;;;;;;;;5099066;27;24425;-46
2022/07/16 12:27:47;;;;;;;2.60;2.40;;;;;;;;;;5095483;28;24473;-46
2022/07/16 12:30:12;;;;;;;2.50;2.30;;;;;;;;;;5091960;28;24972;-46
2022/07/16 12:32:50;;;;;;;2.10;1.90;;;;;;;;;;5107082;27;24486;-46
2022/07/16 12:35:35;;;;;;;2.40;2.20;;;;;;;;;;5098437;28;24479;-46
2022/07/16 12:38:00;;;;;;;2.00;1.80;;;;;;;;;;5092303;27;24467;-46
2022/07/16 12:40:25;;;;;;;1.80;1.70;;;;;;;;;;5095630;27;24781;-45
2022/07/16 12:42:50;;;;;;;2.30;1.70;;;;;;;;;;5099582;28;24432;-47
2022/07/16 12:45:15;;;;;;;2.40;1.73;;;;;;;;;;5115155;27;24433;-46
2022/07/16 12:47:40;;;;;;;1.83;1.73;;;;;;;;;;5108347;27;24432;-46
2022/07/16 12:50:06;;;;;;;2.20;1.80;;;;;;;;;;5085344;28;25198;-46
2022/07/16 12:52:31;;;;;;;1.80;1.70;;;;;;;;;;5081989;28;24405;-46
2022/07/16 13:00:33;;;;;;;1.70;1.60;;;;;;;;;;5102612;28;24405;-45
2022/07/16 13:02:58;;;;;;;1.65;1.55;;;;;;;;;;5094905;28;24425;-46
2022/07/16 13:05:25;;;;;;;1.70;1.60;;;;;;;;;;5086907;28;24399;-46
2022/07/16 13:07:50;;;;;;;1.90;1.70;;;;;;;;;;5084285;28;24418;-46
2022/07/16 13:10:15;;;;;;;2.00;1.60;;;;;;;;;;5084859;28;24690;-45
2022/07/16 13:12:40;;;;;;;2.30;1.60;;;;;;;;;;5096991;28;24470;-46
2022/07/16 13:15:05;;;;;;;1.80;1.70;;;;;;;;;;5086702;28;24410;-45
2022/07/16 13:17:31;;;;;;;2.00;1.60;;;;;;;;;;5085154;28;24418;-46
2022/07/16 13:19:56;;;;;;;1.95;1.75;;;;;;;;;;5084765;28;24913;-46
2022/07/16 13:22:21;;;;;;;2.00;1.80;;;;;;;;;;5088928;28;24988;-45
2022/07/16 13:24:46;;;;;;;3.85;2.30;;;;;;;;;;5084809;28;24454;-45
2022/07/16 13:27:11;;;;;;;2.30;2.03;;;;;;;;;;5090814;28;24508;-45
2022/07/16 13:29:36;;;;;;;2.30;1.90;;;;;;;;;;5103986;28;24446;-45
2022/07/16 13:32:02;;;;;;;2.70;2.30;;;;;;;;;;5102943;28;25038;-45
2022/07/16 13:34:27;;;;;;;1.98;1.88;;;;;;;;;;5105043;28;24539;-45
2022/07/16 13:36:52;;;;;;;2.33;1.90;;;;;;;;;;5085456;28;24976;-49
2022/07/16 13:39:17;;;;;;;2.33;2.10;;;;;;;;;;5088320;28;24426;-45
2022/07/16 13:41:42;;;;;;;2.93;1.80;;;;;;;;;;5102164;27;24425;-46
2022/07/16 13:44:08;;;;;;;2.10;1.90;;;;;;;;;;5095337;28;24425;-46
2022/07/16 13:46:33;;;;;;;3.23;2.03;;;;;;;;;;5093233;28;24425;-46
2022/07/16 13:48:58;;;;;;;2.03;1.83;;;;;;;;;;5094640;28;25448;-46
2022/07/16 13:51:23;;;;;;;2.20;2.00;;;;;;;;;;5087574;28;24394;-46
2022/07/16 13:53:49;;;;;;;2.40;2.20;;;;;;;;;;5086558;28;24428;-46
2022/07/16 13:56:14;;;;;;;2.30;2.10;;;;;;;;;;5105505;28;25497;-46
2022/07/16 13:58:39;;;;;;;2.40;2.20;;;;;;;;;;5091441;28;24557;-46
2022/07/16 14:01:04;;;;;;;2.30;2.10;;;;;;;;;;5087043;28;24425;-46
2022/07/16 14:03:30;;;;;;;2.70;2.50;;;;;;;;;;5087446;28;24390;-46
2022/07/16 14:05:59;;;;;;;1.80;1.70;;;;;;;;;;5087881;28;24451;-45
2022/07/16 14:08:24;;;;;;;1.80;1.70;;;;;;;;;;5102380;28;24418;-45
2022/07/16 14:10:50;;;;;;;3.03;2.70;;;;;;;;;;5107774;28;24962;-45
2022/07/16 14:13:15;;;;;;;2.10;2.00;;;;;;;;;;5107044;28;24415;-45
2022/07/16 14:15:40;;;;;;;2.00;1.77;;;;;;;;;;5107214;28;24417;-47
2022/07/16 14:18:07;;;;;;;2.05;1.95;;;;;;;;;;5096493;28;24473;-46
2022/07/16 14:20:32;;;;;;;2.20;2.00;;;;;;;;;;5087483;28;24394;-45
2022/07/16 14:22:58;;;;;;;2.20;1.90;;;;;;;;;;5095820;28;24881;-46
2022/07/16 14:25:23;;;;;;;2.30;1.83;;;;;;;;;;5107571;28;24389;-46
2022/07/16 14:27:48;;;;;;;4.10;2.50;;;;;;;;;;5103430;28;25324;-46
2022/07/16 14:30:13;;;;;;;3.50;3.20;;;;;;;;;;5092352;28;24550;-46
2022/07/16 14:32:39;;;;;;;2.45;2.25;;;;;;;;;;5104842;28;24524;-46
2022/07/16 14:35:06;;;;;;;3.30;3.03;;;;;;;;;;5104021;28;24422;-46
2022/07/16 14:37:31;;;;;;;3.10;2.70;;;;;;;;;;5106869;28;24982;-46
2022/07/16 14:39:56;;;;;;;2.30;2.10;;;;;;;;;;5107143;28;24437;-46
2022/07/16 14:42:21;;;;;;;2.83;2.13;;;;;;;;;;5104626;28;24788;-46
2022/07/16 14:44:46;;;;;;;2.20;1.80;;;;;;;;;;5098413;28;24422;-46
2022/07/16 14:47:11;;;;;;;2.10;1.87;;;;;;;;;;5091200;28;24780;-46
2022/07/16 14:49:36;;;;;;;2.30;1.80;;;;;;;;;;5086223;28;24515;-46